Time;durP1;ratioP1;P1;durP2;ratioP2;P2;SDS_P1;SDS_P2;PMS_P1;PMS_P2;Temp;Humidity;BMP_temperature;BMP_pressure;BME280_temperature;BME280_humidity;BME280_pressure;Samples;Min_cycle;Max_cycle;Signal;HPM_P1;HPM_P2
2020/12/19 00:00:09;;;;;;;2.33;1.90;;;20.20;50.70;;;;;;4976381;28;20224;-58
2020/12/19 00:02:36;;;;;;;2.07;1.87;;;20.10;50.80;;;;;;4997714;28;20223;-56
2020/12/19 00:05:05;;;;;;;4.90;2.27;;;20.10;50.80;;;;;;4982918;28;20223;-56
2020/12/19 00:07:32;;;;;;;2.17;1.90;;;20.00;51.00;;;;;;5005262;28;20238;-57
2020/12/19 00:09:59;;;;;;;2.10;1.90;;;20.00;51.00;;;;;;4975843;28;23721;-57
2020/12/19 00:12:25;;;;;;;2.93;2.40;;;20.00;51.00;;;;;;4985985;28;20227;-56
2020/12/19 00:14:52;;;;;;;2.53;2.13;;;20.00;51.10;;;;;;4994006;28;20231;-58
2020/12/19 00:17:19;;;;;;;2.80;2.17;;;19.90;51.10;;;;;;4997712;28;20223;-56
2020/12/19 00:19:45;;;;;;;2.37;2.10;;;19.90;51.20;;;;;;5003337;28;20229;-56
2020/12/19 00:22:11;;;;;;;4.73;2.00;;;19.90;51.30;;;;;;4986282;28;20231;-58
2020/12/19 00:24:38;;;;;;;2.73;2.30;;;19.80;51.30;;;;;;4998717;28;20219;-58
2020/12/19 00:27:08;;;;;;;3.40;2.30;;;19.80;51.40;;;;;;5000137;28;20696;-58
2020/12/19 00:29:34;;;;;;;2.67;2.20;;;19.80;51.40;;;;;;5020656;28;20267;-58
2020/12/19 00:32:02;;;;;;;3.00;2.33;;;19.70;51.40;;;;;;5000189;28;20235;-58
2020/12/19 00:34:28;;;;;;;2.93;2.50;;;19.70;51.50;;;;;;5007698;28;20227;-57
2020/12/19 00:36:54;;;;;;;2.77;2.40;;;19.70;51.50;;;;;;5000143;28;20722;-58
2020/12/19 00:39:21;;;;;;;2.30;2.00;;;19.70;51.50;;;;;;5008228;28;20232;-56
2020/12/19 00:41:47;;;;;;;2.40;2.20;;;19.60;51.70;;;;;;4999492;28;20224;-58
2020/12/19 00:44:13;;;;;;;2.97;2.30;;;19.60;51.60;;;;;;5008847;28;20297;-59
2020/12/19 00:46:39;;;;;;;2.60;2.40;;;19.60;51.70;;;;;;5001174;28;20591;-56
2020/12/19 00:49:06;;;;;;;2.60;2.40;;;19.60;51.70;;;;;;5008008;28;20881;-56
2020/12/19 00:51:32;;;;;;;2.93;2.30;;;19.60;51.70;;;;;;4999717;28;20211;-57
2020/12/19 00:53:58;;;;;;;2.97;2.67;;;19.50;51.80;;;;;;5005812;28;20597;-59
2020/12/19 00:56:27;;;;;;;2.77;2.23;;;19.50;51.70;;;;;;5005477;28;20235;-56
2020/12/19 00:58:55;;;;;;;3.90;2.47;;;19.50;51.90;;;;;;5000809;28;20235;-58
2020/12/19 01:01:23;;;;;;;2.60;2.40;;;19.50;51.90;;;;;;5006286;28;20238;-58
2020/12/19 01:03:52;;;;;;;3.10;2.60;;;19.40;52.10;;;;;;4999956;28;20246;-56
2020/12/19 01:06:20;;;;;;;6.80;2.60;;;19.40;51.90;;;;;;4986136;28;20639;-57
2020/12/19 01:08:52;;;;;;;2.73;2.30;;;19.40;52.00;;;;;;4981320;28;20719;-56
2020/12/19 01:11:34;;;;;;;2.50;2.30;;;19.40;52.00;;;;;;5006313;28;20627;-56
2020/12/19 01:14:01;;;;;;;3.60;2.80;;;19.30;52.00;;;;;;5001184;28;20231;-57
2020/12/19 01:16:28;;;;;;;4.53;2.50;;;19.30;52.10;;;;;;5006364;28;20227;-57
2020/12/19 01:18:58;;;;;;;2.70;2.30;;;19.30;52.00;;;;;;4999578;28;20242;-57
2020/12/19 01:21:27;;;;;;;2.57;2.30;;;19.30;52.20;;;;;;5007218;28;20558;-58
2020/12/19 01:23:55;;;;;;;2.80;2.23;;;19.30;52.20;;;;;;4999063;28;20987;-56
2020/12/19 01:26:22;;;;;;;2.40;2.20;;;19.30;52.20;;;;;;5004179;28;20234;-56
2020/12/19 01:28:49;;;;;;;3.07;2.33;;;19.20;52.20;;;;;;5000663;28;20223;-56
2020/12/19 01:31:19;;;;;;;2.57;2.30;;;19.20;52.20;;;;;;5005811;28;21331;-57
2020/12/19 01:33:46;;;;;;;3.00;2.40;;;19.20;52.30;;;;;;4998686;28;20242;-56
2020/12/19 01:36:18;;;;;;;2.63;2.40;;;19.20;52.30;;;;;;5006607;28;20630;-57
2020/12/19 01:38:44;;;;;;;2.73;2.33;;;19.20;52.50;;;;;;4998550;28;20243;-58
2020/12/19 01:41:10;;;;;;;2.90;2.60;;;19.20;52.40;;;;;;5005432;28;20224;-55
2020/12/19 01:43:52;;;;;;;2.87;2.67;;;19.20;52.50;;;;;;5007015;28;20632;-57
2020/12/19 01:46:45;;;;;;;2.80;2.60;;;19.10;52.50;;;;;;5007691;28;20664;-58
2020/12/19 01:49:13;;;;;;;2.50;2.30;;;19.10;52.50;;;;;;4996881;28;21358;-57
2020/12/19 01:51:40;;;;;;;2.30;2.10;;;19.10;52.60;;;;;;5007572;28;20220;-58
2020/12/19 01:54:08;;;;;;;2.90;2.60;;;19.10;52.60;;;;;;4999420;28;20334;-57
2020/12/19 01:56:43;;;;;;;3.20;2.33;;;19.00;52.60;;;;;;5004799;28;20773;-57
2020/12/19 01:59:11;;;;;;;3.07;2.77;;;19.00;52.60;;;;;;5005681;28;20239;-58
2020/12/19 02:01:45;;;;;;;2.97;2.77;;;19.00;52.70;;;;;;4999519;28;20223;-56
2020/12/19 02:04:12;;;;;;;2.93;2.57;;;19.00;52.60;;;;;;5006499;28;20248;-56
2020/12/19 02:06:40;;;;;;;2.83;2.60;;;19.00;52.80;;;;;;4997068;28;20243;-57
2020/12/19 02:09:07;;;;;;;2.67;2.47;;;19.00;52.70;;;;;;5006716;28;20227;-56
2020/12/19 02:11:34;;;;;;;3.13;2.40;;;19.00;52.80;;;;;;4998394;28;20232;-57
2020/12/19 02:14:00;;;;;;;2.80;2.43;;;18.90;52.70;;;;;;5007923;28;20230;-57
2020/12/19 02:16:26;;;;;;;2.60;2.40;;;18.90;52.90;;;;;;4998176;28;20600;-58
2020/12/19 02:18:52;;;;;;;2.60;2.40;;;18.90;52.90;;;;;;5006257;28;20228;-58
2020/12/19 02:21:19;;;;;;;2.90;2.60;;;18.90;53.00;;;;;;4998445;28;20297;-58
2020/12/19 02:23:46;;;;;;;2.80;2.40;;;18.90;53.00;;;;;;5005746;28;20230;-57
2020/12/19 02:26:12;;;;;;;2.60;2.40;;;18.90;52.90;;;;;;4999264;28;20219;-57
2020/12/19 02:28:38;;;;;;;3.20;2.80;;;18.80;53.00;;;;;;5006054;28;20228;-58
2020/12/19 02:31:05;;;;;;;3.47;2.60;;;18.90;53.10;;;;;;4999814;28;20688;-57
2020/12/19 02:33:31;;;;;;;2.87;2.50;;;18.80;53.00;;;;;;5004378;28;20246;-58
2020/12/19 02:36:06;;;;;;;2.37;2.17;;;18.80;53.10;;;;;;4999623;28;20826;-57
2020/12/19 02:38:32;;;;;;;2.43;2.23;;;18.80;53.10;;;;;;5004248;28;20226;-57
2020/12/19 02:40:58;;;;;;;3.80;2.90;;;18.80;53.10;;;;;;5005903;28;20228;-57
2020/12/19 02:43:24;;;;;;;3.07;2.70;;;18.80;53.10;;;;;;4998162;28;20250;-57
2020/12/19 02:45:51;;;;;;;3.30;2.77;;;18.80;53.20;;;;;;5005214;28;20233;-57
2020/12/19 02:48:17;;;;;;;3.80;2.70;;;18.80;53.20;;;;;;4997014;28;20231;-58
2020/12/19 02:50:43;;;;;;;2.60;2.40;;;18.70;53.20;;;;;;5006586;28;20231;-57
2020/12/19 02:53:09;;;;;;;2.60;2.40;;;18.70;53.20;;;;;;4996547;28;20362;-57
2020/12/19 02:55:36;;;;;;;3.27;2.50;;;18.80;53.20;;;;;;5005212;28;20243;-57
2020/12/19 02:58:02;;;;;;;2.90;2.60;;;18.70;53.30;;;;;;4998313;28;20231;-57
2020/12/19 03:00:28;;;;;;;4.00;3.10;;;18.70;53.30;;;;;;5006473;28;20223;-57
2020/12/19 03:02:55;;;;;;;2.97;2.67;;;18.70;53.40;;;;;;4997544;28;20247;-57
2020/12/19 03:05:21;;;;;;;3.10;2.43;;;18.60;53.40;;;;;;5004868;28;20234;-57
2020/12/19 03:07:47;;;;;;;2.97;2.43;;;18.70;53.40;;;;;;4998605;28;20703;-57
2020/12/19 03:10:14;;;;;;;2.50;2.30;;;18.70;53.40;;;;;;5003639;28;20234;-57
2020/12/19 03:12:40;;;;;;;2.60;2.40;;;18.60;53.40;;;;;;4999109;28;20235;-58
2020/12/19 03:15:06;;;;;;;3.20;2.50;;;18.60;53.40;;;;;;5005436;28;20215;-57
2020/12/19 03:17:38;;;;;;;3.00;2.50;;;18.60;53.50;;;;;;5001881;28;20227;-57
2020/12/19 03:20:04;;;;;;;2.70;2.50;;;18.60;53.50;;;;;;5003010;28;20300;-58
2020/12/19 03:22:30;;;;;;;2.50;2.20;;;18.60;53.50;;;;;;5004754;28;20228;-57
2020/12/19 03:24:57;;;;;;;2.93;2.63;;;18.60;53.60;;;;;;4996651;28;20246;-57
2020/12/19 03:27:23;;;;;;;2.73;2.40;;;18.60;53.60;;;;;;5003721;28;20231;-57
2020/12/19 03:29:49;;;;;;;2.93;2.60;;;18.50;53.50;;;;;;4997493;28;20223;-57
2020/12/19 03:32:16;;;;;;;2.43;2.20;;;18.50;53.50;;;;;;5004806;28;20227;-58
2020/12/19 03:34:42;;;;;;;3.27;2.53;;;18.50;53.60;;;;;;4996304;28;20251;-57
2020/12/19 03:37:09;;;;;;;2.27;2.03;;;18.50;53.60;;;;;;5006862;28;20242;-57
2020/12/19 03:39:35;;;;;;;5.30;2.80;;;18.50;53.70;;;;;;4998039;28;20242;-57
2020/12/19 03:42:01;;;;;;;2.53;2.33;;;18.50;53.70;;;;;;5004195;28;20223;-57
2020/12/19 03:44:27;;;;;;;2.60;2.40;;;18.50;53.80;;;;;;4998512;28;20234;-57
2020/12/19 03:46:54;;;;;;;2.40;2.20;;;18.50;53.80;;;;;;5004970;28;20231;-56
2020/12/19 03:49:20;;;;;;;2.90;2.60;;;18.50;53.80;;;;;;4997014;28;20591;-58
2020/12/19 03:51:46;;;;;;;2.83;2.50;;;18.50;54.40;;;;;;5004039;28;20234;-58
2020/12/19 03:54:12;;;;;;;3.00;2.73;;;18.50;53.90;;;;;;4999478;28;20231;-56
2020/12/19 03:56:39;;;;;;;3.03;2.40;;;18.50;53.90;;;;;;5004883;28;20231;-57
2020/12/19 03:59:05;;;;;;;2.53;2.33;;;18.50;53.90;;;;;;5008348;28;20219;-56
2020/12/19 04:01:31;;;;;;;2.60;2.40;;;18.40;53.80;;;;;;5001042;28;20743;-60
2020/12/19 04:03:57;;;;;;;2.60;2.40;;;18.40;53.90;;;;;;5009304;28;20695;-57
2020/12/19 04:06:24;;;;;;;2.90;2.70;;;18.40;53.80;;;;;;5000110;28;20234;-56
2020/12/19 04:08:51;;;;;;;2.93;2.60;;;18.40;53.90;;;;;;5009388;28;20223;-58
2020/12/19 04:11:17;;;;;;;4.30;2.43;;;18.40;53.90;;;;;;5001532;28;20247;-58
2020/12/19 04:13:44;;;;;;;2.83;2.53;;;18.40;53.90;;;;;;5007134;28;20239;-56
2020/12/19 04:16:10;;;;;;;2.90;2.60;;;18.40;54.70;;;;;;4999412;28;20215;-56
2020/12/19 04:18:36;;;;;;;3.33;2.50;;;18.40;54.00;;;;;;5009027;28;20239;-58
2020/12/19 04:21:06;;;;;;;2.77;2.57;;;18.30;53.90;;;;;;4999881;28;20231;-56
2020/12/19 04:23:33;;;;;;;5.00;2.90;;;18.40;54.00;;;;;;5007610;28;20580;-57
2020/12/19 04:26:00;;;;;;;2.97;2.63;;;18.40;54.10;;;;;;5000712;28;20235;-58
2020/12/19 04:28:27;;;;;;;2.90;2.70;;;18.40;54.60;;;;;;5007214;28;20224;-58
2020/12/19 04:30:54;;;;;;;2.90;2.70;;;18.30;53.90;;;;;;5001143;28;20234;-58
2020/12/19 04:33:21;;;;;;;2.87;2.63;;;18.30;53.90;;;;;;5007234;28;21048;-58
2020/12/19 04:35:47;;;;;;;3.20;2.70;;;18.30;53.90;;;;;;5005661;28;20222;-57
2020/12/19 04:38:13;;;;;;;3.47;2.50;;;18.30;54.10;;;;;;5003865;28;20223;-58
2020/12/19 04:40:40;;;;;;;2.60;2.40;;;18.30;54.00;;;;;;5009223;28;20718;-57
2020/12/19 04:43:14;;;;;;;2.67;2.40;;;18.30;54.00;;;;;;5001066;28;20230;-56
2020/12/19 04:45:41;;;;;;;2.90;2.60;;;18.30;54.10;;;;;;5007521;28;20234;-58
2020/12/19 04:48:07;;;;;;;2.87;2.57;;;18.30;54.10;;;;;;4999784;28;20223;-58
2020/12/19 04:50:39;;;;;;;2.40;2.20;;;18.30;54.10;;;;;;5009450;28;20231;-57
2020/12/19 04:53:19;;;;;;;3.03;2.50;;;18.30;54.10;;;;;;4998410;28;20701;-56
2020/12/19 04:55:47;;;;;;;2.60;2.40;;;18.30;54.20;;;;;;5007824;28;20254;-56
2020/12/19 04:58:20;;;;;;;2.77;2.47;;;18.20;54.10;;;;;;5000133;28;20236;-56
2020/12/19 05:00:47;;;;;;;3.23;2.33;;;18.30;54.20;;;;;;5006740;28;20274;-58
2020/12/19 05:03:14;;;;;;;2.60;2.40;;;18.20;54.10;;;;;;4999817;28;20250;-58
2020/12/19 05:05:42;;;;;;;3.13;2.63;;;18.20;54.20;;;;;;5008014;28;20234;-59
2020/12/19 05:08:09;;;;;;;2.60;2.30;;;18.20;54.20;;;;;;5000517;28;20854;-58
2020/12/19 05:10:35;;;;;;;2.37;2.17;;;18.20;54.20;;;;;;5007594;28;20231;-57
2020/12/19 05:13:01;;;;;;;3.10;2.77;;;18.20;54.30;;;;;;5000730;28;20211;-57
2020/12/19 05:15:28;;;;;;;2.47;2.27;;;18.20;54.30;;;;;;5006583;28;20223;-58
2020/12/19 05:17:57;;;;;;;2.67;2.10;;;18.20;54.30;;;;;;5000730;28;20691;-58
2020/12/19 05:20:26;;;;;;;2.70;2.30;;;18.20;54.30;;;;;;5007113;28;21845;-58
2020/12/19 05:22:53;;;;;;;2.80;2.50;;;18.20;54.30;;;;;;4999927;28;20237;-57
2020/12/19 05:25:22;;;;;;;2.40;2.20;;;18.20;54.30;;;;;;5006920;28;20711;-59
2020/12/19 05:27:49;;;;;;;2.37;2.17;;;18.20;54.30;;;;;;5004647;28;20224;-57
2020/12/19 05:30:18;;;;;;;2.60;2.30;;;18.20;54.30;;;;;;4998785;28;20277;-56
2020/12/19 05:32:50;;;;;;;2.63;2.20;;;18.20;54.30;;;;;;5004814;28;20263;-56
2020/12/19 05:35:20;;;;;;;2.63;2.43;;;18.20;54.40;;;;;;4997971;28;20247;-57
2020/12/19 05:37:56;;;;;;;2.13;1.93;;;18.20;54.40;;;;;;5005999;28;21935;-57
2020/12/19 05:40:24;;;;;;;2.97;2.43;;;18.20;54.40;;;;;;4998006;28;20235;-57
2020/12/19 05:42:50;;;;;;;2.67;2.23;;;18.10;54.30;;;;;;5007177;28;20231;-57
2020/12/19 05:45:19;;;;;;;2.70;2.50;;;18.10;54.40;;;;;;4999020;28;20699;-57
2020/12/19 05:47:46;;;;;;;2.57;2.37;;;18.10;54.40;;;;;;5007451;28;20231;-56
2020/12/19 05:50:13;;;;;;;4.97;2.27;;;18.20;54.50;;;;;;4994130;28;20223;-66
2020/12/19 05:52:40;;;;;;;1.97;1.87;;;18.10;54.70;;;;;;5006253;28;20238;-66
2020/12/19 05:55:18;;;;;;;2.10;1.97;;;18.80;54.50;;;;;;4998267;28;20224;-65
2020/12/19 05:57:45;;;;;;;2.20;1.83;;;19.50;52.80;;;;;;5004728;28;20661;-66
2020/12/19 06:00:17;;;;;;;6.07;1.80;;;20.00;52.00;;;;;;4994871;28;20278;-66
2020/12/19 06:02:44;;;;;;;3.63;1.70;;;20.40;51.10;;;;;;4989421;28;20697;-66
2020/12/19 06:05:15;;;;;;;1.93;1.50;;;20.80;50.40;;;;;;4978714;28;20239;-68
2020/12/19 06:07:46;;;;;;;1.70;1.60;;;21.10;49.90;;;;;;4985575;28;20220;-66
2020/12/19 06:10:14;;;;;;;1.50;1.40;;;21.30;49.30;;;;;;4978680;28;20689;-67
2020/12/19 06:13:01;;;;;;;3.27;1.70;;;21.50;49.10;;;;;;4984039;28;20228;-66
2020/12/19 06:15:52;;;;;;;6.00;2.13;;;21.80;48.50;;;;;;4977837;28;20228;-70
2020/12/19 06:18:50;;;;;;;1.50;1.40;;;22.10;47.80;;;;;;4996784;28;20224;-65
2020/12/19 06:21:16;;;;;;;3.40;1.50;;;22.40;47.20;;;;;;4977481;28;20746;-69
2020/12/19 06:23:43;;;;;;;2.70;1.57;;;22.50;46.90;;;;;;5015044;28;20224;-66
2020/12/19 06:26:11;;;;;;;2.47;1.40;;;22.80;46.60;;;;;;4981151;28;20295;-66
2020/12/19 06:31:07;;;;;;;1.70;1.40;;;23.00;45.90;;;;;;4979047;28;20216;-66
2020/12/19 06:33:34;;;;;;;2.97;1.60;;;23.00;46.00;;;;;;4993323;28;20238;-68
2020/12/19 06:36:19;;;;;;;1.50;1.40;;;23.20;45.60;;;;;;4977726;28;20243;-65
2020/12/19 06:39:12;;;;;;;1.90;1.40;;;23.40;45.30;;;;;;4983913;28;20250;-65
2020/12/19 06:41:42;;;;;;;1.67;1.53;;;23.60;44.90;;;;;;4975948;28;20568;-67
2020/12/19 06:44:19;;;;;;;1.87;1.40;;;23.70;44.70;;;;;;4998672;28;20422;-66
2020/12/19 06:46:51;;;;;;;1.77;1.57;;;23.80;44.50;;;;;;4990767;28;20557;-65
2020/12/19 06:49:23;;;;;;;2.73;1.43;;;24.00;44.30;;;;;;4987077;28;20407;-66
2020/12/19 06:52:10;;;;;;;1.30;1.20;;;24.20;44.10;;;;;;4981742;28;21977;-67
2020/12/19 06:54:47;;;;;;;2.37;1.77;;;24.30;43.70;;;;;;4992659;28;20272;-64
2020/12/19 06:57:24;;;;;;;1.23;1.13;;;24.40;43.70;;;;;;4980261;28;20224;-66
2020/12/19 06:59:51;;;;;;;1.40;1.30;;;24.50;43.60;;;;;;4985176;28;20640;-66
2020/12/19 07:02:21;;;;;;;3.03;1.40;;;24.60;43.30;;;;;;4999345;28;20529;-59
2020/12/19 07:04:48;;;;;;;2.10;1.90;;;24.60;42.90;;;;;;5004816;28;20703;-60
2020/12/19 07:07:21;;;;;;;2.27;1.83;;;24.00;42.60;;;;;;4992088;28;20234;-61
2020/12/19 07:09:59;;;;;;;2.20;2.00;;;23.40;43.30;;;;;;4991513;28;20689;-60
2020/12/19 07:12:29;;;;;;;2.70;1.97;;;22.90;44.50;;;;;;4971294;28;20227;-60
2020/12/19 07:14:56;;;;;;;2.10;2.00;;;22.60;45.00;;;;;;4984605;28;20236;-60
2020/12/19 07:17:23;;;;;;;2.07;1.87;;;22.40;45.70;;;;;;4984531;28;20674;-61
2020/12/19 07:19:57;;;;;;;2.13;1.87;;;22.20;45.80;;;;;;4978764;28;20567;-60
2020/12/19 07:22:24;;;;;;;2.10;1.43;;;22.10;46.20;;;;;;4984208;28;20278;-59
2020/12/19 07:24:52;;;;;;;2.67;1.70;;;22.00;46.40;;;;;;4979758;28;20231;-60
2020/12/19 07:27:20;;;;;;;2.40;1.93;;;21.90;46.50;;;;;;4994287;28;20232;-59
2020/12/19 07:29:46;;;;;;;2.20;2.00;;;21.80;46.60;;;;;;4973189;28;20236;-59
2020/12/19 07:32:13;;;;;;;1.97;1.87;;;21.70;46.80;;;;;;5002748;28;20319;-56
2020/12/19 07:34:39;;;;;;;2.83;1.70;;;21.60;47.00;;;;;;4985863;28;20362;-58
2020/12/19 07:37:07;;;;;;;2.93;2.00;;;21.50;47.00;;;;;;5004014;28;20235;-56
2020/12/19 07:39:33;;;;;;;2.40;2.10;;;21.40;47.10;;;;;;4978245;28;20243;-56
2020/12/19 07:42:03;;;;;;;2.20;2.00;;;21.40;47.30;;;;;;5005501;28;20227;-57
2020/12/19 07:44:29;;;;;;;3.10;2.30;;;21.30;47.40;;;;;;4996546;28;20680;-57
2020/12/19 07:46:59;;;;;;;2.33;2.13;;;21.20;47.50;;;;;;5002545;28;20247;-57
2020/12/19 07:49:37;;;;;;;3.33;2.30;;;21.20;47.50;;;;;;4995440;28;20246;-57
2020/12/19 07:52:05;;;;;;;1.90;1.67;;;21.10;47.60;;;;;;5000729;28;20699;-56
2020/12/19 07:54:32;;;;;;;3.00;2.10;;;21.10;47.80;;;;;;4993732;28;20231;-57
2020/12/19 07:56:59;;;;;;;2.57;2.10;;;21.10;48.00;;;;;;5019754;28;20230;-57
2020/12/19 07:59:26;;;;;;;2.03;1.90;;;21.00;48.10;;;;;;4995132;28;20227;-57
2020/12/19 08:01:54;;;;;;;3.67;2.03;;;20.90;48.10;;;;;;5004750;28;20227;-57
2020/12/19 08:04:20;;;;;;;4.83;2.60;;;20.90;47.90;;;;;;5003058;28;20231;-56
2020/12/19 08:06:50;;;;;;;6.30;3.10;;;20.90;48.20;;;;;;4997048;28;20314;-58
2020/12/19 08:09:29;;;;;;;10.00;4.10;;;20.80;48.40;;;;;;5001905;28;20235;-61
2020/12/19 08:11:59;;;;;;;20.63;6.60;;;20.80;48.60;;;;;;4996315;28;20223;-60
2020/12/19 08:14:26;;;;;;;25.77;7.67;;;20.70;49.60;;;;;;5003541;28;20707;-60
2020/12/19 08:16:53;;;;;;;23.40;7.17;;;20.60;49.90;;;;;;4995506;28;20239;-59
2020/12/19 08:19:38;;;;;;;19.43;7.00;;;20.50;49.90;;;;;;5004455;28;20275;-58
2020/12/19 08:22:06;;;;;;;17.20;6.63;;;20.40;50.50;;;;;;4996279;28;20227;-59
2020/12/19 08:24:32;;;;;;;16.57;6.57;;;20.40;49.90;;;;;;5002628;28;20231;-59
2020/12/19 08:27:35;;;;;;;16.40;6.00;;;20.20;49.80;;;;;;4996959;28;20761;-58
2020/12/19 08:30:19;;;;;;;13.37;5.67;;;20.20;49.70;;;;;;4984924;28;20549;-58
2020/12/19 08:32:54;;;;;;;11.80;4.80;;;20.20;49.80;;;;;;4990422;28;20597;-60
2020/12/19 08:35:44;;;;;;;12.90;5.17;;;20.10;49.70;;;;;;5018077;28;20237;-59
2020/12/19 08:38:14;;;;;;;11.43;5.20;;;20.10;49.80;;;;;;4998706;28;20258;-56
2020/12/19 08:40:42;;;;;;;13.03;5.53;;;20.00;49.90;;;;;;5003974;28;20255;-57
2020/12/19 08:43:13;;;;;;;8.87;4.80;;;20.00;50.00;;;;;;4993957;28;20243;-58
2020/12/19 08:45:49;;;;;;;9.00;4.80;;;20.00;50.00;;;;;;5006944;28;20231;-57
2020/12/19 08:48:20;;;;;;;10.97;4.77;;;19.90;49.90;;;;;;4998602;28;20231;-59
2020/12/19 08:50:47;;;;;;;9.73;4.70;;;19.90;50.00;;;;;;5004143;28;20239;-56
2020/12/19 08:53:23;;;;;;;9.33;4.03;;;19.90;50.00;;;;;;4980889;28;20236;-56
2020/12/19 08:55:51;;;;;;;6.80;4.10;;;19.90;50.00;;;;;;5005883;28;20629;-58
2020/12/19 08:58:22;;;;;;;7.37;4.63;;;19.90;50.00;;;;;;4998823;28;20219;-55
2020/12/19 09:00:50;;;;;;;6.60;3.97;;;19.80;50.00;;;;;;5007810;28;20243;-56
2020/12/19 09:03:26;;;;;;;6.57;4.23;;;19.80;50.00;;;;;;4998533;28;20224;-56
2020/12/19 09:06:05;;;;;;;9.10;4.23;;;19.80;50.00;;;;;;5006682;28;20227;-59
2020/12/19 09:08:41;;;;;;;5.33;3.90;;;19.80;50.00;;;;;;5000897;28;20238;-58
2020/12/19 09:11:09;;;;;;;7.43;4.27;;;19.70;50.00;;;;;;5006889;28;20220;-58
2020/12/19 09:13:36;;;;;;;5.03;3.93;;;19.80;49.90;;;;;;4986790;28;20244;-56
2020/12/19 09:16:10;;;;;;;5.77;3.87;;;19.70;49.90;;;;;;4984204;28;20220;-59
2020/12/19 09:18:37;;;;;;;7.47;3.87;;;19.70;49.90;;;;;;4978110;28;20227;-58
2020/12/19 09:21:09;;;;;;;5.33;3.60;;;19.70;50.00;;;;;;4996575;28;20239;-57
2020/12/19 09:23:37;;;;;;;7.43;4.13;;;19.70;49.90;;;;;;4974073;28;20680;-57
2020/12/19 09:26:05;;;;;;;5.97;3.47;;;19.60;49.90;;;;;;4983199;28;20227;-57
2020/12/19 09:28:32;;;;;;;6.27;3.77;;;19.60;50.30;;;;;;4981736;28;20247;-58
2020/12/19 09:30:59;;;;;;;4.77;3.37;;;19.60;50.50;;;;;;4985176;28;20243;-58
2020/12/19 09:33:25;;;;;;;4.70;3.93;;;19.60;50.70;;;;;;4998424;28;20227;-59
2020/12/19 09:35:52;;;;;;;4.93;3.90;;;19.70;50.70;;;;;;5004532;28;20235;-61
2020/12/19 09:38:18;;;;;;;6.60;4.00;;;19.70;50.80;;;;;;5005202;28;20235;-60
2020/12/19 09:40:44;;;;;;;6.33;4.60;;;19.70;50.90;;;;;;4997955;28;20211;-59
2020/12/19 09:43:10;;;;;;;5.37;3.97;;;19.70;50.90;;;;;;5005454;28;20215;-59
2020/12/19 09:45:38;;;;;;;5.67;4.07;;;19.70;51.20;;;;;;4996963;28;20228;-59
2020/12/19 09:48:05;;;;;;;7.20;4.57;;;19.70;51.70;;;;;;5007773;28;20569;-58
2020/12/19 09:50:32;;;;;;;5.87;4.27;;;19.60;52.20;;;;;;4996304;28;22347;-59
2020/12/19 09:52:59;;;;;;;6.63;4.60;;;19.60;53.10;;;;;;5004942;28;20239;-59
2020/12/19 09:55:27;;;;;;;6.70;4.60;;;19.60;53.20;;;;;;4997825;28;20262;-53
2020/12/19 09:57:55;;;;;;;6.67;5.00;;;19.50;53.40;;;;;;5006136;28;20235;-53
2020/12/19 10:00:21;;;;;;;6.67;4.30;;;19.60;53.60;;;;;;4999685;28;20234;-52
2020/12/19 10:02:49;;;;;;;5.43;4.63;;;19.50;53.80;;;;;;5005147;28;20215;-53
2020/12/19 10:05:16;;;;;;;5.70;4.50;;;19.50;53.80;;;;;;4998880;28;20223;-52
2020/12/19 10:07:42;;;;;;;5.30;4.20;;;19.50;53.90;;;;;;5006180;28;20227;-58
2020/12/19 10:10:09;;;;;;;5.77;4.10;;;19.50;54.00;;;;;;5000214;28;20238;-53
2020/12/19 10:12:35;;;;;;;4.90;3.90;;;19.50;54.00;;;;;;5004105;28;20234;-52
2020/12/19 10:15:05;;;;;;;5.40;4.47;;;19.50;54.00;;;;;;4998995;28;20236;-54
2020/12/19 10:17:31;;;;;;;4.50;3.87;;;19.40;54.10;;;;;;5005200;28;20251;-56
2020/12/19 10:19:57;;;;;;;5.43;4.20;;;19.40;54.00;;;;;;5004749;28;20857;-56
2020/12/19 10:22:24;;;;;;;5.10;3.93;;;19.40;54.50;;;;;;4996120;28;20227;-54
2020/12/19 10:24:50;;;;;;;4.13;3.73;;;19.40;54.50;;;;;;5005594;28;20231;-54
2020/12/19 10:27:17;;;;;;;4.70;4.20;;;19.40;54.60;;;;;;4997964;28;20223;-55
2020/12/19 10:29:43;;;;;;;5.27;3.97;;;19.40;54.80;;;;;;5004894;28;20234;-55
2020/12/19 10:32:12;;;;;;;4.27;3.67;;;19.40;54.80;;;;;;4997277;28;20227;-54
2020/12/19 10:34:39;;;;;;;16.13;5.83;;;19.40;55.00;;;;;;5007321;28;20292;-62
2020/12/19 10:37:06;;;;;;;22.93;7.83;;;19.40;55.70;;;;;;4997079;28;20250;-59
2020/12/19 10:39:33;;;;;;;23.70;8.57;;;19.40;58.10;;;;;;5006013;28;20222;-57
2020/12/19 10:41:59;;;;;;;19.30;7.43;;;19.50;58.40;;;;;;4998559;28;20297;-59
2020/12/19 10:44:26;;;;;;;16.80;7.30;;;19.50;58.60;;;;;;5005039;28;20227;-59
2020/12/19 10:46:52;;;;;;;20.00;7.37;;;19.50;58.30;;;;;;4999378;28;20583;-59
2020/12/19 10:49:18;;;;;;;17.73;7.20;;;19.60;58.10;;;;;;5004252;28;20228;-61
2020/12/19 10:51:45;;;;;;;17.03;7.03;;;19.60;58.10;;;;;;4997621;28;20506;-57
2020/12/19 10:54:12;;;;;;;16.57;6.80;;;19.70;58.10;;;;;;5004909;28;20223;-56
2020/12/19 10:56:56;;;;;;;15.47;6.67;;;19.70;57.50;;;;;;5012087;28;20534;-59
2020/12/19 10:59:23;;;;;;;13.50;6.60;;;19.80;57.40;;;;;;4996399;28;20227;-61
2020/12/19 11:01:49;;;;;;;11.67;6.17;;;19.80;57.10;;;;;;5003206;28;20231;-60
2020/12/19 11:04:16;;;;;;;9.10;5.63;;;19.80;57.00;;;;;;4995472;28;20236;-58
2020/12/19 11:06:42;;;;;;;12.17;5.80;;;19.80;57.50;;;;;;5006440;28;20222;-58
2020/12/19 11:09:09;;;;;;;11.53;5.00;;;19.80;57.60;;;;;;4999016;28;20223;-60
2020/12/19 11:11:35;;;;;;;11.43;5.10;;;19.80;56.90;;;;;;5002340;28;20714;-60
2020/12/19 11:14:01;;;;;;;8.83;5.00;;;19.80;56.60;;;;;;4997136;28;20228;-58
2020/12/19 11:16:29;;;;;;;7.00;4.60;;;19.80;56.50;;;;;;5004112;28;20227;-57
2020/12/19 11:18:56;;;;;;;7.40;4.67;;;19.80;56.30;;;;;;4998033;28;20230;-59
2020/12/19 11:21:24;;;;;;;5.53;4.40;;;19.80;56.40;;;;;;5004272;28;20653;-56
2020/12/19 11:23:50;;;;;;;5.53;4.20;;;19.70;56.40;;;;;;4996914;28;20226;-58
2020/12/19 11:26:20;;;;;;;7.47;4.07;;;19.70;56.20;;;;;;5004492;28;20238;-56
2020/12/19 11:28:52;;;;;;;8.10;4.30;;;19.70;56.10;;;;;;4997508;28;20231;-59
2020/12/19 11:31:25;;;;;;;5.60;3.80;;;19.70;56.40;;;;;;5002978;28;20234;-58
2020/12/19 11:33:52;;;;;;;4.30;3.43;;;19.70;56.50;;;;;;4999396;28;20362;-56
2020/12/19 11:36:19;;;;;;;4.73;3.40;;;19.70;56.20;;;;;;5004358;28;20235;-55
2020/12/19 11:38:45;;;;;;;6.60;3.77;;;19.70;56.60;;;;;;4995658;28;20695;-57
2020/12/19 11:41:11;;;;;;;5.20;3.77;;;19.60;56.60;;;;;;5004226;28;20814;-56
2020/12/19 11:43:38;;;;;;;6.07;4.10;;;19.70;56.80;;;;;;4998088;28;20237;-58
2020/12/19 11:46:07;;;;;;;4.70;3.70;;;19.60;56.70;;;;;;5002940;28;20219;-57
2020/12/19 11:48:33;;;;;;;4.73;3.17;;;19.50;56.90;;;;;;5004320;28;20227;-56
2020/12/19 11:51:00;;;;;;;4.37;3.20;;;19.50;57.00;;;;;;4996538;28;20223;-58
2020/12/19 11:53:27;;;;;;;6.40;3.70;;;19.50;57.20;;;;;;4990613;28;20230;-56
2020/12/19 11:55:54;;;;;;;3.97;2.93;;;19.50;57.40;;;;;;4994560;28;20293;-58
2020/12/19 11:58:20;;;;;;;5.57;3.40;;;19.60;57.50;;;;;;5001052;28;20238;-60
2020/12/19 12:00:46;;;;;;;3.23;2.67;;;19.50;57.50;;;;;;4993303;28;20224;-58
2020/12/19 12:03:12;;;;;;;3.47;2.80;;;19.50;57.70;;;;;;5000505;28;20747;-58
2020/12/19 12:05:39;;;;;;;4.23;2.90;;;19.50;57.70;;;;;;4994397;28;20712;-56
2020/12/19 12:08:05;;;;;;;4.30;2.97;;;19.50;57.60;;;;;;4998832;28;20231;-57
2020/12/19 12:10:31;;;;;;;2.53;2.33;;;19.50;57.80;;;;;;4992679;28;20271;-57
2020/12/19 12:12:58;;;;;;;4.67;2.90;;;19.40;57.90;;;;;;4994340;28;20234;-56
2020/12/19 12:15:24;;;;;;;4.10;2.87;;;19.50;57.70;;;;;;4994181;28;20224;-57
2020/12/19 12:17:50;;;;;;;3.13;2.23;;;19.50;57.50;;;;;;5002942;28;20242;-57
2020/12/19 12:20:17;;;;;;;2.67;2.40;;;19.50;57.70;;;;;;4996225;28;20242;-56
2020/12/19 12:22:45;;;;;;;2.67;2.37;;;19.50;57.30;;;;;;4998885;28;20235;-58
2020/12/19 12:25:13;;;;;;;2.57;2.37;;;19.50;57.30;;;;;;4993299;28;20220;-56
2020/12/19 12:27:39;;;;;;;3.20;2.40;;;19.50;57.10;;;;;;4986932;28;20255;-58
2020/12/19 12:30:06;;;;;;;2.77;2.10;;;19.50;57.00;;;;;;5004602;28;20723;-56
2020/12/19 12:32:33;;;;;;;2.50;2.30;;;19.40;56.60;;;;;;4997204;28;20228;-58
2020/12/19 12:34:59;;;;;;;2.17;1.93;;;19.40;57.00;;;;;;5003066;28;20235;-56
2020/12/19 12:37:26;;;;;;;2.87;2.00;;;19.40;57.10;;;;;;4986926;28;20243;-56
2020/12/19 12:39:53;;;;;;;2.37;2.17;;;19.40;56.90;;;;;;4996665;28;21636;-59
2020/12/19 12:42:21;;;;;;;2.77;1.90;;;19.40;57.50;;;;;;4993703;28;20922;-56
2020/12/19 12:44:48;;;;;;;4.67;2.07;;;19.40;57.10;;;;;;5002115;28;20223;-56
2020/12/19 12:47:14;;;;;;;2.23;1.90;;;19.40;57.50;;;;;;4994254;28;20582;-56
2020/12/19 12:49:40;;;;;;;4.13;1.80;;;19.40;57.40;;;;;;5003385;28;20223;-55
2020/12/19 12:52:07;;;;;;;2.10;1.87;;;19.40;57.20;;;;;;4994906;28;20219;-57
2020/12/19 12:54:33;;;;;;;2.23;1.73;;;19.40;57.20;;;;;;4998434;28;20238;-57